createdAt,value
2018-09-23T04:54:29.739Z,17.63
2018-09-23T04:56:59.331Z,19.80
2018-09-23T04:59:28.187Z,18.77
2018-09-23T05:01:58.635Z,20.73
2018-09-23T05:04:27.942Z,22.40
2018-09-23T05:06:56.594Z,20.67
2018-09-23T05:09:25.266Z,21.13
2018-09-23T05:11:55.821Z,19.90
2018-09-23T05:14:25.469Z,20.93
2018-09-23T05:16:54.262Z,21.60
2018-09-23T05:19:24.104Z,21.30
2018-09-23T05:21:53.844Z,21.57
2018-09-23T05:24:22.745Z,21.83
2018-09-23T05:26:51.417Z,21.97
2018-09-23T05:29:20.684Z,21.80
2018-09-23T05:31:50.385Z,23.70
2018-09-23T05:34:19.384Z,23.37
2018-09-23T05:36:48.951Z,23.87
2018-09-23T05:39:18.408Z,23.10
2018-09-23T05:41:48.350Z,23.97
2018-09-23T05:44:17.197Z,24.80
2018-09-23T05:46:46.427Z,24.43
2018-09-23T05:49:21.909Z,25.77
2018-09-23T05:51:51.027Z,24.43
2018-09-23T05:54:19.663Z,25.93
2018-09-23T05:56:49.191Z,23.87
2018-09-23T05:59:19.187Z,25.47
2018-09-23T06:01:51.693Z,24.87
2018-09-23T06:04:21.445Z,26.90
2018-09-23T06:06:50.157Z,24.97
2018-09-23T06:09:20.453Z,25.93
2018-09-23T06:11:50.295Z,25.80
2018-09-23T06:14:19.046Z,24.93
2018-09-23T06:16:48.920Z,25.27
2018-09-23T06:19:18.890Z,23.70
2018-09-23T06:21:47.883Z,25.03
2018-09-23T06:24:17.705Z,23.87
2018-09-23T06:26:46.964Z,25.07
2018-09-23T06:29:16.643Z,24.97
2018-09-23T06:31:45.743Z,23.23
2018-09-23T06:34:15.110Z,23.53
2018-09-23T06:36:44.988Z,24.20
2018-09-23T06:39:15.134Z,23.03
2018-09-23T14:13:31.662Z,3.10
2018-09-23T14:16:02.928Z,3.00
2018-09-23T14:18:33.311Z,2.87
2018-09-23T14:21:03.547Z,2.40
2018-09-23T14:23:32.595Z,1.73
2018-09-23T14:26:03.715Z,1.90
2018-09-23T14:28:32.613Z,2.23
2018-09-23T14:31:03.517Z,1.60
2018-09-23T14:33:33.994Z,1.53
2018-09-23T14:36:02.598Z,1.40
2018-09-23T14:41:14.119Z,1.13
2018-09-23T14:43:44.015Z,1.17
2018-09-23T14:46:13.758Z,1.43
2018-09-23T14:48:43.896Z,1.00
2018-09-23T14:51:16.662Z,1.20
2018-09-23T14:53:47.100Z,0.80
2018-09-23T14:56:17.097Z,1.00
2018-09-23T14:58:47.418Z,0.70
2018-09-23T15:01:20.891Z,0.80
2018-09-23T15:03:53.929Z,0.57
2018-09-23T15:06:26.121Z,0.80
2018-09-23T15:08:58.290Z,0.83
2018-09-23T15:11:30.655Z,0.97
2018-09-23T15:14:02.595Z,1.00
2018-09-23T15:16:51.270Z,1.20
2018-09-23T15:24:57.937Z,0.90
2018-09-23T15:27:34.026Z,0.83
2018-09-23T15:30:09.176Z,1.20
2018-09-23T15:32:42.665Z,1.70
2018-09-23T15:35:13.686Z,2.00
2018-09-23T15:37:47.280Z,2.00
2018-09-23T15:40:16.330Z,1.90
2018-09-23T15:42:46.772Z,1.30
2018-09-23T15:45:17.494Z,1.30
2018-09-23T15:47:47.272Z,1.20
2018-09-23T15:50:17.376Z,1.77
2018-09-23T15:52:48.456Z,1.67
2018-09-23T15:55:19.542Z,1.53
2018-09-23T15:57:50.147Z,1.10
2018-09-23T16:00:20.790Z,1.03
2018-09-23T16:02:51.741Z,1.53
2018-09-23T16:05:23.338Z,1.63
2018-09-23T16:07:53.628Z,1.40
2018-09-23T16:10:24.334Z,1.20
2018-09-23T16:12:54.740Z,1.80
2018-09-23T16:15:23.784Z,1.33
2018-09-23T16:17:54.724Z,1.10
2018-09-23T16:20:25.008Z,1.63
2018-09-23T16:22:55.820Z,1.60
2018-09-23T16:25:27.580Z,1.43
2018-09-23T16:27:56.384Z,1.53
2018-09-23T16:30:28.742Z,1.50
2018-09-23T16:32:59.826Z,2.10
2018-09-23T16:35:29.906Z,1.33
2018-09-23T16:38:01.885Z,1.50
2018-09-23T16:40:34.688Z,1.50
2018-09-23T16:43:06.417Z,1.30
2018-09-23T16:45:52.672Z,1.30
2018-09-23T16:48:35.908Z,1.67
2018-09-23T16:51:12.361Z,1.30
2018-09-23T16:53:49.127Z,1.10
2018-09-23T16:56:34.054Z,0.97
2018-09-23T22:17:00.487Z,1.77
2018-09-23T22:19:30.892Z,2.10
2018-09-23T22:22:01.200Z,1.97
2018-09-23T22:24:31.139Z,2.13
2018-09-23T22:27:00.721Z,2.00
2018-09-23T22:29:30.981Z,2.30
2018-09-23T22:32:01.194Z,2.60
2018-09-23T22:34:29.946Z,2.20
2018-09-23T22:37:00.224Z,2.83
2018-09-23T22:39:29.914Z,2.10
2018-09-23T22:41:59.059Z,3.13
2018-09-23T22:44:29.633Z,2.23
2018-09-23T22:46:59.718Z,1.87
2018-09-23T22:49:28.586Z,1.70
2018-09-23T22:51:58.882Z,1.60
2018-09-23T22:54:29.453Z,1.87
2018-09-23T22:56:58.427Z,1.67
2018-09-23T22:59:28.802Z,1.37
2018-09-23T23:01:59.588Z,2.30
2018-09-23T23:04:29.268Z,1.50
2018-09-23T23:06:58.271Z,2.00
2018-09-23T23:09:29.602Z,1.70
2018-09-23T23:12:00.599Z,2.10
2018-09-23T23:14:30.380Z,1.60
2018-09-23T23:16:59.364Z,1.90
2018-09-23T23:19:29.774Z,1.90
2018-09-23T23:21:58.473Z,1.87
2018-09-23T23:24:29.253Z,2.00
2018-09-23T23:26:59.306Z,2.23
2018-09-23T23:29:27.916Z,2.70
2018-09-23T23:31:58.447Z,2.73
2018-09-23T23:34:28.929Z,2.70
2018-09-23T23:36:58.867Z,2.60
2018-09-23T23:39:28.130Z,2.00
2018-09-23T23:41:58.419Z,2.43
2018-09-23T23:44:26.993Z,3.00
2018-09-23T23:46:57.611Z,1.87
2018-09-23T23:49:28.649Z,1.80
2018-09-23T23:51:58.986Z,1.50
2018-09-23T23:54:27.832Z,1.50
2018-09-23T23:56:58.183Z,1.63
2018-09-23T23:59:29.115Z,1.37
